Time;durP1;ratioP1;P1;durP2;ratioP2;P2;SDS_P1;SDS_P2;PMS_P1;PMS_P2;Temp;Humidity;BMP_temperature;BMP_pressure;BME280_temperature;BME280_humidity;BME280_pressure;Samples;Min_cycle;Max_cycle;Signal;HPM_P1;HPM_P2
2023/05/07 00:00:55;;;;;;;37.17;23.37;;;;;;;10.50;93.94;101217.03;5056704;28;20673;-68
2023/05/07 00:03:23;;;;;;;39.23;25.30;;;;;;;10.47;94.13;101219.84;5055230;28;20319;-69
2023/05/07 00:05:50;;;;;;;39.37;24.33;;;;;;;10.46;94.40;101217.25;5051900;28;20212;-69
2023/05/07 00:08:16;;;;;;;40.90;25.27;;;;;;;10.43;94.17;101219.13;5053398;28;20232;-69
2023/05/07 00:10:43;;;;;;;40.30;25.70;;;;;;;10.40;94.63;101216.63;5055728;28;20216;-68
2023/05/07 00:13:09;;;;;;;44.17;26.63;;;;;;;10.40;95.06;101213.97;5049243;28;20289;-68
2023/05/07 00:15:35;;;;;;;42.40;25.73;;;;;;;10.40;94.77;101213.13;5056728;28;20216;-68
2023/05/07 00:18:02;;;;;;;45.43;26.00;;;;;;;10.38;95.24;101218.56;5048726;28;20221;-69
2023/05/07 00:20:30;;;;;;;45.13;25.77;;;;;;;10.38;95.32;101205.25;5050573;28;20206;-68
2023/05/07 00:22:56;;;;;;;41.93;24.50;;;;;;;10.38;95.37;101207.03;5048718;28;20226;-69
2023/05/07 00:25:23;;;;;;;46.23;25.93;;;;;;;10.35;95.68;101207.19;5043836;28;20203;-68
2023/05/07 00:27:49;;;;;;;36.67;24.37;;;;;;;10.34;95.51;101202.81;5044370;28;20226;-69
2023/05/07 00:30:16;;;;;;;38.80;23.00;;;;;;;10.34;96.19;101201.00;5048115;28;20213;-68
2023/05/07 00:32:45;;;;;;;41.87;26.27;;;;;;;10.32;95.66;101194.91;5047937;28;20198;-68
2023/05/07 00:35:12;;;;;;;42.93;24.07;;;;;;;10.33;96.13;101193.97;5047947;28;20205;-69
2023/05/07 00:37:40;;;;;;;39.60;23.80;;;;;;;10.33;96.13;101190.44;5046287;28;20233;-69
2023/05/07 00:40:08;;;;;;;44.13;23.87;;;;;;;10.31;96.25;101182.53;5039433;28;21000;-69
2023/05/07 00:42:34;;;;;;;42.93;26.17;;;;;;;10.32;96.50;101186.06;5046703;28;20229;-69
2023/05/07 00:45:01;;;;;;;40.90;25.00;;;;;;;10.31;96.27;101184.34;5045387;28;20210;-69
2023/05/07 00:47:27;;;;;;;41.83;24.77;;;;;;;10.29;96.50;101170.25;5050540;28;20674;-69
2023/05/07 00:49:54;;;;;;;41.63;24.53;;;;;;;10.27;96.22;101183.63;5053562;28;20213;-68
2023/05/07 00:52:22;;;;;;;45.93;25.33;;;;;;;10.26;96.19;101184.56;5048440;28;20217;-68
2023/05/07 00:54:50;;;;;;;45.43;24.33;;;;;;;10.25;96.72;101182.84;5047951;28;20232;-68
2023/05/07 00:57:16;;;;;;;40.00;24.10;;;;;;;10.23;96.38;101189.19;5050956;28;20233;-68
2023/05/07 00:59:43;;;;;;;46.00;26.67;;;;;;;10.18;96.93;101184.09;5042097;28;20203;-68
2023/05/07 01:02:09;;;;;;;46.60;25.50;;;;;;;10.16;96.75;101193.97;5039832;28;21287;-69
2023/05/07 01:04:36;;;;;;;46.77;25.40;;;;;;;10.16;97.44;101178.00;5047922;28;20207;-68
2023/05/07 01:07:04;;;;;;;45.03;26.30;;;;;;;10.14;97.55;101190.53;5052499;28;20306;-68
2023/05/07 01:09:30;;;;;;;37.53;22.53;;;;;;;10.15;97.58;101196.72;5048896;28;20217;-68
2023/05/07 01:11:59;;;;;;;42.53;24.20;;;;;;;10.12;97.82;101187.09;5048802;28;20206;-68
2023/05/07 01:14:26;;;;;;;39.73;24.10;;;;;;;10.10;97.52;101191.63;5051633;28;20217;-68
2023/05/07 01:16:53;;;;;;;49.07;26.40;;;;;;;10.07;97.86;101187.31;5052552;28;20210;-68
2023/05/07 01:19:20;;;;;;;46.80;25.43;;;;;;;10.06;97.83;101190.91;5053863;28;20248;-68
2023/05/07 01:21:48;;;;;;;44.13;25.97;;;;;;;10.03;98.42;101196.41;5049321;28;20928;-68
2023/05/07 01:24:17;;;;;;;41.90;23.03;;;;;;;10.02;98.21;101196.50;5048419;28;20217;-68
2023/05/07 01:26:43;;;;;;;45.23;25.47;;;;;;;10.01;98.30;101202.75;5054810;28;20220;-68
2023/05/07 01:29:10;;;;;;;40.27;24.47;;;;;;;9.99;98.88;101196.66;5044038;28;20232;-68
2023/05/07 01:31:38;;;;;;;43.43;23.77;;;;;;;9.96;98.72;101203.00;5042318;28;20198;-68
2023/05/07 01:34:05;;;;;;;49.43;25.40;;;;;;;9.95;99.55;101192.44;5056689;28;20214;-68
2023/05/07 01:36:33;;;;;;;43.47;24.43;;;;;;;9.94;99.27;101202.22;5047716;28;20677;-68
2023/05/07 01:39:00;;;;;;;40.90;22.57;;;;;;;9.93;99.29;101199.63;5047786;28;20734;-69
2023/05/07 01:41:28;;;;;;;32.53;19.93;;;;;;;9.92;99.54;101195.25;5050984;28;20208;-68
2023/05/07 01:43:56;;;;;;;34.33;20.77;;;;;;;9.91;99.04;101206.81;5046950;28;20233;-69
2023/05/07 01:46:23;;;;;;;34.33;19.60;;;;;;;9.89;99.70;101206.03;5048313;28;20695;-68
2023/05/07 01:48:50;;;;;;;32.97;19.67;;;;;;;9.88;99.31;101206.97;5048150;28;20242;-69
2023/05/07 01:51:17;;;;;;;30.20;19.40;;;;;;;9.87;99.55;101194.63;5054621;28;20201;-68
2023/05/07 01:53:45;;;;;;;30.60;18.03;;;;;;;9.84;99.11;101194.81;5050468;28;20588;-69
2023/05/07 01:56:12;;;;;;;31.47;19.83;;;;;;;9.82;99.67;101196.69;5048354;28;20210;-68
2023/05/07 01:58:39;;;;;;;27.60;18.23;;;;;;;9.80;99.21;101187.91;5051267;28;20237;-69
2023/05/07 02:01:06;;;;;;;29.03;17.73;;;;;;;9.80;99.03;101186.09;5048758;28;20665;-68
2023/05/07 02:03:32;;;;;;;30.60;18.53;;;;;;;9.77;99.36;101188.06;5054735;28;20249;-68
2023/05/07 02:05:59;;;;;;;28.37;17.70;;;;;;;9.74;99.26;101187.28;5053139;28;20215;-69
2023/05/07 02:08:25;;;;;;;29.80;17.10;;;;;;;9.75;99.15;101196.13;5049136;28;20225;-69
2023/05/07 02:10:53;;;;;;;28.73;18.00;;;;;;;9.74;99.73;101197.91;5052258;28;20638;-68
2023/05/07 02:13:21;;;;;;;25.70;17.70;;;;;;;9.74;99.67;101199.72;5047654;28;20313;-69
2023/05/07 02:15:50;;;;;;;27.83;16.20;;;;;;;9.75;98.98;101201.44;5049892;28;20218;-68
2023/05/07 02:18:17;;;;;;;25.63;16.23;;;;;;;9.75;98.84;101202.31;5046747;28;20229;-68
2023/05/07 02:20:44;;;;;;;22.57;16.63;;;;;;;9.76;99.00;101200.50;5048382;28;20241;-68
2023/05/07 02:23:10;;;;;;;21.23;15.63;;;;;;;9.75;98.57;101196.13;5049451;28;20225;-68
2023/05/07 02:25:37;;;;;;;27.53;15.33;;;;;;;9.75;98.54;101220.91;5043924;28;20683;-68
2023/05/07 02:28:03;;;;;;;23.00;15.90;;;;;;;9.74;99.01;101216.53;5047337;28;20221;-68
2023/05/07 02:30:30;;;;;;;22.03;15.93;;;;;;;9.76;98.79;101224.44;5052008;28;20209;-68
2023/05/07 02:32:57;;;;;;;20.03;14.77;;;;;;;9.74;98.60;101231.63;5046487;28;20689;-69
2023/05/07 02:35:25;;;;;;;25.13;16.00;;;;;;;9.75;98.56;101222.72;5054027;28;20209;-69
2023/05/07 02:37:51;;;;;;;22.57;15.93;;;;;;;9.73;98.59;101230.78;5040881;28;20413;-69
2023/05/07 02:40:18;;;;;;;20.90;14.63;;;;;;;9.74;98.11;101221.00;5046257;28;20206;-69
2023/05/07 02:42:44;;;;;;;20.97;15.23;;;;;;;9.73;98.21;101225.44;5050877;28;20228;-69
2023/05/07 02:45:11;;;;;;;21.10;14.73;;;;;;;9.73;98.43;101232.56;5047939;28;20241;-69
2023/05/07 02:47:38;;;;;;;19.10;13.90;;;;;;;9.73;97.82;101236.09;5045558;28;20313;-69
2023/05/07 02:50:07;;;;;;;21.60;14.67;;;;;;;9.73;98.06;101232.56;5047057;28;20603;-69
2023/05/07 02:52:33;;;;;;;18.97;13.23;;;;;;;9.72;97.97;101234.38;5051082;28;20576;-68
2023/05/07 02:55:00;;;;;;;20.17;15.20;;;;;;;9.72;98.03;101233.50;5047904;28;20844;-68
2023/05/07 02:57:26;;;;;;;22.23;15.93;;;;;;;9.71;98.16;101226.47;5047129;28;20229;-69
2023/05/07 02:59:53;;;;;;;22.47;16.07;;;;;;;9.71;98.26;101216.69;5045334;28;20202;-68
2023/05/07 03:02:20;;;;;;;22.13;16.63;;;;;;;9.73;97.22;101213.94;5048811;28;20212;-68
2023/05/07 03:04:46;;;;;;;26.80;16.40;;;;;;;9.72;97.76;101218.41;5049601;28;20779;-68
2023/05/07 03:07:14;;;;;;;21.27;15.30;;;;;;;9.72;97.65;101212.22;5048413;28;20206;-68
2023/05/07 03:09:40;;;;;;;19.13;14.60;;;;;;;9.70;97.44;101214.09;5045841;28;20205;-68
2023/05/07 03:12:07;;;;;;;19.10;14.93;;;;;;;9.70;97.57;101208.78;5052036;28;20206;-68
2023/05/07 03:14:34;;;;;;;22.20;16.20;;;;;;;9.68;97.29;101213.31;5053485;28;20209;-68
2023/05/07 03:17:00;;;;;;;23.40;17.03;;;;;;;9.68;97.40;101213.31;5048644;28;20206;-68
2023/05/07 03:19:27;;;;;;;21.80;16.00;;;;;;;9.66;97.43;101213.41;5050515;28;20205;-68
2023/05/07 03:21:53;;;;;;;24.20;16.87;;;;;;;9.69;97.33;101218.56;5047786;28;20236;-69
2023/05/07 03:24:21;;;;;;;22.80;15.07;;;;;;;9.68;97.46;101208.00;5046308;28;20222;-68
2023/05/07 03:26:48;;;;;;;21.13;15.40;;;;;;;9.67;97.72;101208.97;5051429;28;20209;-68
2023/05/07 03:29:14;;;;;;;22.47;15.40;;;;;;;9.66;97.58;101209.91;5058502;28;20225;-68
2023/05/07 03:31:40;;;;;;;21.40;14.20;;;;;;;9.67;97.44;101204.47;5053976;28;20202;-69
2023/05/07 03:34:07;;;;;;;23.43;15.43;;;;;;;9.65;97.34;101197.53;5056306;28;20205;-68
2023/05/07 03:36:33;;;;;;;22.63;15.77;;;;;;;9.64;97.63;101188.69;5049701;28;20573;-68
2023/05/07 03:39:00;;;;;;;20.17;15.27;;;;;;;9.64;98.16;101194.03;5046482;28;20249;-69
2023/05/07 03:41:29;;;;;;;21.00;14.63;;;;;;;9.62;97.93;101195.88;5053408;28;20210;-68
2023/05/07 03:43:55;;;;;;;20.87;14.83;;;;;;;9.63;97.64;101202.94;5048219;28;20742;-68
2023/05/07 03:46:22;;;;;;;20.30;14.50;;;;;;;9.63;98.02;101196.75;5053596;28;20202;-68
2023/05/07 03:48:49;;;;;;;21.60;14.37;;;;;;;9.63;98.08;101205.59;5056449;28;20228;-69
2023/05/07 03:51:16;;;;;;;21.60;15.60;;;;;;;9.63;97.97;101200.28;5048327;28;20201;-69
2023/05/07 03:53:42;;;;;;;22.13;15.83;;;;;;;9.62;97.79;101210.97;5057924;28;20216;-68
2023/05/07 03:56:09;;;;;;;23.33;15.70;;;;;;;9.59;98.39;101197.84;5051220;28;20591;-69
2023/05/07 03:58:36;;;;;;;20.43;15.50;;;;;;;9.58;98.66;101199.63;5059318;28;20311;-68
2023/05/07 04:01:03;;;;;;;21.50;14.93;;;;;;;9.58;98.21;101188.13;5048768;28;20221;-68
2023/05/07 04:03:30;;;;;;;20.03;14.00;;;;;;;9.57;98.74;101211.22;5056439;28;20229;-68
2023/05/07 04:05:56;;;;;;;20.07;14.10;;;;;;;9.55;98.63;101210.41;5047013;28;20202;-68
2023/05/07 04:08:23;;;;;;;21.03;14.40;;;;;;;9.56;98.70;101224.56;5058456;28;20225;-68
2023/05/07 04:10:55;;;;;;;21.37;14.17;;;;;;;9.54;98.69;101227.31;5054271;28;20202;-68
2023/05/07 04:13:21;;;;;;;17.83;13.60;;;;;;;9.54;98.54;101226.44;5053154;28;20669;-68
2023/05/07 04:15:49;;;;;;;21.40;14.40;;;;;;;9.54;98.39;101223.78;5049530;28;20213;-68
2023/05/07 04:18:16;;;;;;;18.47;13.27;;;;;;;9.52;98.74;101226.53;5056855;28;20312;-68
2023/05/07 04:20:42;;;;;;;18.80;12.53;;;;;;;9.51;98.76;101226.59;5055470;28;20325;-69
2023/05/07 04:23:09;;;;;;;19.60;13.87;;;;;;;9.50;99.24;101223.06;5053070;28;20229;-68
2023/05/07 04:25:35;;;;;;;20.47;14.73;;;;;;;9.49;99.12;101240.00;5050997;28;20206;-68
2023/05/07 04:28:02;;;;;;;18.53;12.73;;;;;;;9.47;99.36;101239.22;5052692;28;20232;-68
2023/05/07 04:30:28;;;;;;;21.43;13.20;;;;;;;9.45;99.96;101235.75;5051455;28;20217;-68
2023/05/07 04:32:56;;;;;;;17.67;13.13;;;;;;;9.47;99.77;101233.03;5055861;28;20201;-68
2023/05/07 04:35:23;;;;;;;21.43;14.80;;;;;;;9.44;99.43;101234.03;5053824;28;20660;-68
2023/05/07 04:37:49;;;;;;;19.70;13.93;;;;;;;9.44;99.83;101235.84;5048186;28;20224;-68
2023/05/07 04:40:16;;;;;;;18.47;12.43;;;;;;;9.45;99.72;101243.72;5053534;28;20209;-68
2023/05/07 04:42:42;;;;;;;17.97;13.00;;;;;;;9.45;99.82;101246.41;5045642;28;20229;-68
2023/05/07 04:45:10;;;;;;;19.47;13.20;;;;;;;9.44;99.60;101243.81;5052038;28;20583;-68
2023/05/07 04:47:36;;;;;;;19.40;12.70;;;;;;;9.42;99.49;101246.53;5075280;22;20260;-68
2023/05/07 04:50:05;;;;;;;17.43;11.73;;;;;;;9.41;99.68;101244.81;5085568;28;20738;-70
2023/05/07 04:52:31;;;;;;;17.63;12.77;;;;;;;9.40;99.31;101254.59;5091029;28;20222;-69
2023/05/07 04:55:00;;;;;;;16.77;12.20;;;;;;;9.44;99.08;101262.41;5085934;28;20227;-70
2023/05/07 04:57:26;;;;;;;17.70;12.53;;;;;;;9.41;99.39;101260.75;5092612;28;20239;-69
2023/05/07 04:59:53;;;;;;;18.00;12.27;;;;;;;9.40;99.49;101259.91;5079665;28;20200;-69
2023/05/07 05:02:19;;;;;;;19.80;13.83;;;;;;;9.39;98.87;101262.63;5084059;28;20714;-69
2023/05/07 05:04:46;;;;;;;17.77;12.87;;;;;;;9.41;99.25;101271.41;5083310;28;20674;-69
2023/05/07 05:07:14;;;;;;;17.23;12.20;;;;;;;9.42;99.36;101269.59;5072692;28;20223;-69
2023/05/07 05:09:40;;;;;;;17.97;12.57;;;;;;;9.43;98.66;101268.66;5083091;28;20260;-69
2023/05/07 05:12:07;;;;;;;19.90;12.57;;;;;;;9.45;99.06;101269.47;5073886;28;20204;-68
2023/05/07 05:14:33;;;;;;;17.67;12.50;;;;;;;9.44;98.20;101276.56;5084206;28;20200;-69
2023/05/07 05:17:00;;;;;;;17.20;11.20;;;;;;;9.44;98.03;101271.25;5075702;28;20209;-69
2023/05/07 05:19:26;;;;;;;14.50;11.47;;;;;;;9.41;98.17;101282.03;5080250;28;20227;-69
2023/05/07 05:21:52;;;;;;;16.87;11.03;;;;;;;9.41;97.88;101274.06;5075027;28;20209;-66
2023/05/07 05:24:20;;;;;;;15.60;11.60;;;;;;;9.41;98.09;101274.06;5072621;28;20229;-68
2023/05/07 05:26:47;;;;;;;15.20;10.57;;;;;;;9.44;97.87;101275.72;5078938;28;20246;-69
2023/05/07 05:29:13;;;;;;;12.80;10.57;;;;;;;9.45;97.60;101283.63;5078830;28;20231;-69
2023/05/07 05:31:41;;;;;;;15.97;11.17;;;;;;;9.43;97.17;101280.16;5080355;28;20223;-69
2023/05/07 05:34:07;;;;;;;15.17;10.50;;;;;;;9.43;97.49;101281.97;5071229;28;20295;-69
2023/05/07 05:36:34;;;;;;;15.63;11.17;;;;;;;9.42;97.14;101283.75;5072937;28;20691;-69
2023/05/07 05:39:00;;;;;;;13.37;9.80;;;;;;;9.42;96.85;101282.91;5074752;28;20917;-68
2023/05/07 05:41:28;;;;;;;12.50;9.83;;;;;;;9.44;97.13;101289.00;5081072;28;20682;-69
2023/05/07 05:43:54;;;;;;;12.80;10.30;;;;;;;9.45;97.00;101291.59;5076155;28;20229;-69
2023/05/07 05:46:21;;;;;;;13.87;9.97;;;;;;;9.45;96.50;101299.56;5075176;28;20201;-69
2023/05/07 05:48:47;;;;;;;12.07;9.37;;;;;;;9.45;96.62;101302.22;5078757;28;20855;-69
2023/05/07 05:51:14;;;;;;;12.60;10.10;;;;;;;9.43;95.97;101290.81;5073060;28;20204;-70
2023/05/07 05:53:40;;;;;;;13.03;10.03;;;;;;;9.42;95.87;101291.72;5086072;28;20257;-70
2023/05/07 05:56:07;;;;;;;11.37;9.47;;;;;;;9.44;95.76;101305.81;5071671;28;20216;-70
2023/05/07 05:58:35;;;;;;;11.83;9.67;;;;;;;9.44;95.67;101294.31;5085286;28;20239;-68
2023/05/07 06:01:02;;;;;;;12.53;10.17;;;;;;;9.45;95.33;101288.94;5084372;28;20200;-68
2023/05/07 06:03:28;;;;;;;12.97;10.03;;;;;;;9.49;95.63;101285.19;5077373;28;20239;-70
2023/05/07 06:05:55;;;;;;;11.73;9.83;;;;;;;9.50;95.41;101286.88;5082164;28;20211;-70
2023/05/07 06:08:21;;;;;;;11.27;8.37;;;;;;;9.53;93.97;101278.78;5079051;28;20243;-70
2023/05/07 06:10:48;;;;;;;11.40;8.77;;;;;;;9.54;94.66;101283.16;5075768;28;20205;-69
2023/05/07 06:13:14;;;;;;;11.57;9.40;;;;;;;9.55;94.17;101289.34;5076580;28;20679;-69
2023/05/07 06:15:42;;;;;;;11.97;9.43;;;;;;;9.57;94.76;101298.97;5075928;28;20219;-69
2023/05/07 06:18:08;;;;;;;11.13;9.13;;;;;;;9.60;95.00;101298.81;5078398;28;20228;-69
2023/05/07 06:20:35;;;;;;;10.83;8.47;;;;;;;9.65;93.97;101290.63;5079942;28;20251;-69
2023/05/07 06:23:01;;;;;;;9.57;7.53;;;;;;;9.68;93.97;101291.31;5075867;28;20219;-69
2023/05/07 06:25:28;;;;;;;10.87;8.60;;;;;;;9.69;93.59;101298.34;5074834;28;20221;-70
2023/05/07 06:27:54;;;;;;;10.17;8.30;;;;;;;9.70;93.39;101294.75;5076315;28;20247;-69
2023/05/07 06:30:21;;;;;;;10.13;7.90;;;;;;;9.74;93.75;101296.34;5084520;28;20207;-69
2023/05/07 06:32:49;;;;;;;12.60;8.43;;;;;;;9.77;93.66;101299.78;5076630;28;20204;-69
2023/05/07 06:35:15;;;;;;;9.53;8.07;;;;;;;9.81;93.65;101306.69;5077708;28;20206;-70
2023/05/07 06:37:43;;;;;;;8.83;7.43;;;;;;;9.85;92.88;101303.81;5078545;28;20223;-67
2023/05/07 06:40:10;;;;;;;8.57;6.77;;;;;;;9.89;91.93;101304.47;5075544;28;20235;-69
2023/05/07 06:42:37;;;;;;;9.93;8.27;;;;;;;9.92;91.83;101297.22;5082112;28;20574;-68
2023/05/07 06:45:04;;;;;;;8.93;7.47;;;;;;;9.97;92.18;101303.19;5079381;28;20319;-69
2023/05/07 06:47:31;;;;;;;9.20;7.50;;;;;;;10.00;92.07;101300.38;5080562;28;21547;-69
2023/05/07 06:49:59;;;;;;;9.60;7.20;;;;;;;10.05;91.41;101305.44;5079807;28;20200;-68
2023/05/07 06:52:25;;;;;;;9.40;7.10;;;;;;;10.10;91.08;101306.06;5077829;28;20212;-69
2023/05/07 06:54:52;;;;;;;9.10;7.37;;;;;;;10.14;90.33;101315.63;5075012;28;20223;-68
2023/05/07 06:57:18;;;;;;;8.17;6.43;;;;;;;10.17;90.28;101304.81;5080666;28;20215;-68
2023/05/07 06:59:45;;;;;;;8.23;6.53;;;;;;;10.21;90.67;101303.75;5081028;28;20699;-68
2023/05/07 07:02:11;;;;;;;8.17;6.17;;;;;;;10.29;90.27;101306.88;5078499;28;20582;-69
2023/05/07 07:04:38;;;;;;;8.13;6.07;;;;;;;10.31;89.27;101306.81;5078435;28;20228;-69
2023/05/07 07:07:05;;;;;;;8.77;7.37;;;;;;;10.30;88.78;101313.94;5083547;28;20743;-69
2023/05/07 07:09:32;;;;;;;8.00;6.87;;;;;;;10.33;88.94;101312.91;5083333;28;20235;-69
2023/05/07 07:11:58;;;;;;;8.83;6.90;;;;;;;10.36;88.63;101318.09;5087591;28;20204;-69
2023/05/07 07:14:25;;;;;;;9.03;6.30;;;;;;;10.39;88.21;101315.28;5078715;28;20196;-69
2023/05/07 07:16:51;;;;;;;8.17;5.97;;;;;;;10.41;87.86;101308.91;5087020;28;20204;-72
2023/05/07 07:19:18;;;;;;;7.67;6.87;;;;;;;10.42;87.62;101310.63;5081773;28;20232;-68
2023/05/07 07:21:44;;;;;;;8.60;6.90;;;;;;;10.46;87.42;101311.31;5079739;28;20209;-69
2023/05/07 07:24:12;;;;;;;9.40;7.60;;;;;;;10.50;86.92;101320.88;5085368;28;20295;-69
2023/05/07 07:26:39;;;;;;;9.93;7.83;;;;;;;10.52;85.82;101315.47;5086748;28;20205;-69
2023/05/07 07:29:06;;;;;;;8.13;6.70;;;;;;;10.56;86.01;101325.91;5080763;28;20224;-68
2023/05/07 07:31:33;;;;;;;9.57;6.73;;;;;;;10.61;86.09;101326.50;5080784;28;20206;-69
2023/05/07 07:33:59;;;;;;;9.20;7.20;;;;;;;10.71;85.93;101325.09;5088687;28;20715;-69
2023/05/07 07:36:26;;;;;;;8.13;7.13;;;;;;;10.81;85.78;101327.25;5084031;28;20582;-68
2023/05/07 07:38:52;;;;;;;8.57;6.67;;;;;;;10.88;85.43;101316.19;5075419;28;20278;-69
2023/05/07 07:41:21;;;;;;;7.20;6.10;;;;;;;10.95;84.41;101319.34;5080550;28;20200;-69
2023/05/07 07:43:47;;;;;;;7.73;6.90;;;;;;;10.98;84.00;101314.72;5077562;28;20201;-70
2023/05/07 07:46:13;;;;;;;8.60;7.33;;;;;;;11.03;83.47;101307.34;5081562;28;20204;-69
2023/05/07 07:48:40;;;;;;;8.13;6.83;;;;;;;11.10;83.49;101318.56;5077996;28;20233;-69
2023/05/07 07:51:06;;;;;;;8.17;7.23;;;;;;;11.17;83.40;101327.06;5082266;28;20220;-69
2023/05/07 07:53:33;;;;;;;10.07;8.53;;;;;;;11.16;82.61;101323.53;5086364;28;20557;-69
2023/05/07 07:56:00;;;;;;;10.43;8.80;;;;;;;11.22;82.99;101333.00;5083739;28;20215;-68
2023/05/07 07:58:28;;;;;;;12.03;9.80;;;;;;;11.25;82.83;101327.50;5081507;28;20303;-68
2023/05/07 08:00:55;;;;;;;11.70;9.67;;;;;;;11.29;82.31;101334.38;5084710;28;20212;-69
2023/05/07 08:03:22;;;;;;;10.90;9.80;;;;;;;11.30;81.98;101341.41;5080253;28;20462;-68
2023/05/07 08:05:50;;;;;;;9.73;8.73;;;;;;;11.30;81.68;101336.09;5084435;28;20222;-70
2023/05/07 08:08:17;;;;;;;10.47;9.37;;;;;;;11.30;81.41;101336.09;5080404;28;20263;-69
2023/05/07 08:10:44;;;;;;;13.13;10.40;;;;;;;11.28;80.83;101333.53;5080046;28;20202;-70
2023/05/07 08:13:10;;;;;;;10.67;8.80;;;;;;;11.28;81.14;101338.88;5079314;28;20738;-69
2023/05/07 08:15:38;;;;;;;11.03;9.77;;;;;;;11.29;81.08;101339.69;5079255;28;20663;-68
2023/05/07 08:18:05;;;;;;;10.43;9.37;;;;;;;11.29;81.21;101337.03;5081673;28;20612;-69
2023/05/07 08:20:31;;;;;;;11.47;10.27;;;;;;;11.31;81.74;101343.16;5080127;28;20203;-69
2023/05/07 08:22:58;;;;;;;10.50;9.07;;;;;;;11.32;81.91;101339.53;5083496;28;20210;-68
2023/05/07 08:25:24;;;;;;;11.10;9.33;;;;;;;11.36;82.57;101335.75;5082635;28;20225;-71
2023/05/07 08:27:51;;;;;;;10.77;9.53;;;;;;;11.37;82.17;101333.00;5084617;28;20220;-70
2023/05/07 08:30:17;;;;;;;9.53;8.50;;;;;;;11.38;82.07;101336.53;5084357;28;20365;-70
2023/05/07 08:32:45;;;;;;;9.83;8.80;;;;;;;11.40;81.68;101337.31;5079980;28;20197;-69
2023/05/07 08:35:11;;;;;;;9.60;8.60;;;;;;;11.38;81.42;101339.22;5079762;28;20690;-68
2023/05/07 08:37:38;;;;;;;10.30;8.90;;;;;;;11.40;81.57;101343.50;5076196;28;20684;-69
2023/05/07 08:40:06;;;;;;;10.90;9.80;;;;;;;11.43;81.58;101356.69;5082369;28;20216;-69
2023/05/07 08:42:36;;;;;;;10.20;8.60;;;;;;;11.50;81.36;101354.50;5080536;28;20689;-69
2023/05/07 08:45:05;;;;;;;10.17;9.17;;;;;;;11.52;81.20;101355.28;5080358;28;20237;-69
2023/05/07 08:47:35;;;;;;;12.13;9.67;;;;;;;11.54;80.95;101357.88;5083166;28;20204;-69
2023/05/07 08:50:05;;;;;;;11.10;9.60;;;;;;;11.56;81.18;101364.00;5085139;28;20234;-69
2023/05/07 08:52:32;;;;;;;9.53;8.63;;;;;;;11.58;81.13;101356.75;5083838;28;20212;-69
2023/05/07 08:55:00;;;;;;;10.73;9.53;;;;;;;11.60;81.09;101361.06;5087428;28;20192;-69
2023/05/07 08:57:26;;;;;;;9.93;8.93;;;;;;;11.65;81.19;101361.66;5086158;28;20222;-69
2023/05/07 08:59:53;;;;;;;10.37;9.07;;;;;;;11.69;80.99;101357.88;5085740;28;20209;-68
2023/05/07 09:02:19;;;;;;;9.57;8.63;;;;;;;11.74;80.73;101352.28;5083170;28;20213;-72
2023/05/07 09:04:45;;;;;;;8.73;7.83;;;;;;;11.76;80.05;101350.41;5076899;28;20648;-70
2023/05/07 09:07:14;;;;;;;9.50;8.50;;;;;;;11.77;80.24;101352.16;5082493;28;20208;-69
2023/05/07 09:09:40;;;;;;;8.90;7.47;;;;;;;11.81;80.25;101351.88;5083142;28;20249;-69
2023/05/07 09:12:07;;;;;;;10.03;9.03;;;;;;;11.83;80.15;101357.09;5084595;28;20200;-69
2023/05/07 09:14:34;;;;;;;11.10;9.97;;;;;;;11.86;80.13;101358.75;5085077;28;20208;-70
2023/05/07 09:17:00;;;;;;;11.27;9.70;;;;;;;11.87;80.26;101350.66;5085269;28;20219;-69
2023/05/07 09:19:28;;;;;;;12.57;10.00;;;;;;;11.92;80.41;101350.41;5081534;28;20226;-69
2023/05/07 09:21:59;;;;;;;9.70;8.80;;;;;;;11.97;79.83;101349.19;5077290;28;20208;-70
2023/05/07 09:24:28;;;;;;;11.27;9.37;;;;;;;11.96;79.60;101352.81;5081628;28;20211;-68
2023/05/07 09:26:55;;;;;;;9.80;8.80;;;;;;;11.95;79.36;101355.56;5078664;28;20314;-70
2023/05/07 09:29:21;;;;;;;11.77;10.57;;;;;;;11.98;79.31;101350.91;5083370;28;20709;-70
2023/05/07 09:31:48;;;;;;;11.00;9.90;;;;;;;12.00;79.75;101357.00;5082893;28;20204;-71
2023/05/07 09:34:14;;;;;;;11.23;10.07;;;;;;;12.01;79.59;101350.72;5084759;28;20204;-70
2023/05/07 09:36:41;;;;;;;11.70;10.50;;;;;;;12.00;79.36;101353.50;5085961;28;20214;-68
2023/05/07 09:39:08;;;;;;;12.07;10.70;;;;;;;12.02;79.52;101370.25;5082188;28;20222;-70
2023/05/07 09:41:44;;;;;;;12.00;10.80;;;;;;;12.04;79.06;101363.88;5080746;28;20214;-70
2023/05/07 09:44:11;;;;;;;12.83;11.43;;;;;;;12.04;78.60;101357.69;5079094;28;20232;-69
2023/05/07 09:46:39;;;;;;;12.37;10.80;;;;;;;12.06;78.35;101355.78;5083225;28;20673;-70
2023/05/07 09:49:10;;;;;;;12.17;10.97;;;;;;;12.08;78.42;101356.56;5074407;28;20243;-71
2023/05/07 09:51:42;;;;;;;13.40;12.00;;;;;;;12.09;78.78;101352.94;5072617;28;20214;-71
2023/05/07 09:54:09;;;;;;;12.93;11.53;;;;;;;12.10;78.43;101360.88;5080652;28;20205;-69
2023/05/07 09:56:38;;;;;;;13.47;12.17;;;;;;;12.11;78.77;101361.72;5075441;28;21022;-71
2023/05/07 09:59:06;;;;;;;14.13;12.63;;;;;;;12.13;79.25;101360.69;5080673;28;20326;-70
2023/05/07 10:01:33;;;;;;;13.10;11.87;;;;;;;12.19;78.70;101351.44;5078595;28;20233;-70
2023/05/07 10:04:00;;;;;;;15.30;12.23;;;;;;;12.21;78.88;101356.69;5082930;28;20206;-70
2023/05/07 10:06:27;;;;;;;14.23;10.77;;;;;;;12.27;78.63;101354.53;5079309;28;20232;-70
2023/05/07 10:08:54;;;;;;;13.10;11.73;;;;;;;12.29;78.17;101357.97;5079036;28;20717;-70
2023/05/07 10:11:23;;;;;;;12.07;10.87;;;;;;;12.34;77.89;101360.38;5073388;28;20204;-70
2023/05/07 10:13:52;;;;;;;13.37;12.03;;;;;;;12.34;76.79;101363.91;5073842;28;20208;-70
2023/05/07 10:16:19;;;;;;;12.50;11.20;;;;;;;12.36;77.12;101366.50;5074703;28;20210;-69
2023/05/07 10:18:48;;;;;;;12.60;10.83;;;;;;;12.39;76.97;101363.63;5074069;28;20225;-70
2023/05/07 10:21:18;;;;;;;11.90;10.50;;;;;;;12.33;76.79;101370.22;5079833;28;20208;-70
2023/05/07 10:23:46;;;;;;;13.13;11.73;;;;;;;12.33;76.87;101364.88;5081036;28;20290;-70
2023/05/07 10:26:15;;;;;;;13.50;11.23;;;;;;;12.31;76.85;101371.25;5082357;28;20238;-70
2023/05/07 10:28:47;;;;;;;12.80;11.60;;;;;;;12.33;77.36;101375.56;5084318;28;20610;-70
2023/05/07 10:31:41;;;;;;;12.77;11.50;;;;;;;12.38;77.68;101381.47;5078397;28;20222;-70
2023/05/07 10:34:12;;;;;;;11.73;10.63;;;;;;;12.38;77.34;101376.13;5074889;28;20699;-69
2023/05/07 10:36:40;;;;;;;13.70;12.40;;;;;;;12.39;77.29;101376.97;5077346;28;20207;-72
2023/05/07 10:39:07;;;;;;;13.57;12.13;;;;;;;12.40;77.47;101374.22;5082893;28;20571;-69
2023/05/07 10:41:34;;;;;;;12.20;11.00;;;;;;;12.44;77.36;101369.56;5081074;28;20277;-69
2023/05/07 10:44:02;;;;;;;11.63;10.53;;;;;;;12.48;77.32;101381.78;5083804;28;20227;-69
2023/05/07 10:46:32;;;;;;;11.60;10.50;;;;;;;12.51;77.42;101382.47;5081241;28;20232;-70
2023/05/07 10:49:16;;;;;;;11.30;10.20;;;;;;;12.52;76.68;101373.50;5082042;28;20661;-69
2023/05/07 10:51:45;;;;;;;11.80;10.60;;;;;;;12.50;76.37;101378.06;5080160;28;20216;-72
2023/05/07 10:54:23;;;;;;;12.00;10.60;;;;;;;12.53;75.95;101379.72;5086011;28;20246;-69
2023/05/07 10:56:51;;;;;;;12.33;10.30;;;;;;;12.57;76.83;101380.34;5080320;28;20215;-71
2023/05/07 10:59:42;;;;;;;10.90;9.80;;;;;;;12.65;76.76;101375.44;5077101;28;20232;-69
2023/05/07 11:02:13;;;;;;;11.70;10.60;;;;;;;12.73;78.01;101375.81;5079812;28;20217;-70
2023/05/07 11:04:41;;;;;;;11.57;10.37;;;;;;;12.79;76.98;101387.00;5078532;28;20304;-69
2023/05/07 11:07:32;;;;;;;11.83;10.63;;;;;;;12.85;76.82;101381.28;5082811;28;20274;-70
2023/05/07 11:10:05;;;;;;;11.70;10.60;;;;;;;12.91;76.34;101385.38;5087381;28;20212;-70
2023/05/07 11:12:51;;;;;;;11.90;10.73;;;;;;;12.94;76.12;101384.34;5090874;28;20291;-71
2023/05/07 11:15:49;;;;;;;12.03;10.93;;;;;;;12.99;76.31;101380.44;5090579;28;20636;-70
2023/05/07 11:18:19;;;;;;;11.30;10.10;;;;;;;13.04;76.24;101372.13;5024452;28;20224;-70